sensor_id;sensor_type;location;lat;lon;timestamp;P1;durP1;ratioP1;P2;durP2;ratioP2
49578;SDS011;35483;50.828;3.228;2023-05-07T00:01:31;8.52;;;5.05;;
49578;SDS011;35483;50.828;3.228;2023-05-07T00:03:57;7.50;;;4.57;;
49578;SDS011;35483;50.828;3.228;2023-05-07T00:06:23;6.65;;;4.80;;
49578;SDS011;35483;50.828;3.228;2023-05-07T00:08:49;6.47;;;4.50;;
49578;SDS011;35483;50.828;3.228;2023-05-07T00:11:14;6.95;;;4.82;;
49578;SDS011;35483;50.828;3.228;2023-05-07T00:13:40;8.35;;;4.38;;
49578;SDS011;35483;50.828;3.228;2023-05-07T00:16:06;8.02;;;4.47;;
49578;SDS011;35483;50.828;3.228;2023-05-07T00:18:31;6.75;;;4.63;;
49578;SDS011;35483;50.828;3.228;2023-05-07T00:20:57;6.72;;;4.63;;
49578;SDS011;35483;50.828;3.228;2023-05-07T00:23:23;5.47;;;4.57;;
49578;SDS011;35483;50.828;3.228;2023-05-07T00:25:49;7.57;;;4.22;;
49578;SDS011;35483;50.828;3.228;2023-05-07T00:28:15;6.63;;;4.18;;
49578;SDS011;35483;50.828;3.228;2023-05-07T00:30:40;5.45;;;4.15;;
49578;SDS011;35483;50.828;3.228;2023-05-07T00:33:06;7.03;;;4.63;;
49578;SDS011;35483;50.828;3.228;2023-05-07T00:35:32;5.60;;;4.25;;
49578;SDS011;35483;50.828;3.228;2023-05-07T00:37:58;6.57;;;4.20;;
49578;SDS011;35483;50.828;3.228;2023-05-07T00:40:24;7.10;;;4.35;;
49578;SDS011;35483;50.828;3.228;2023-05-07T00:42:51;6.60;;;3.92;;
49578;SDS011;35483;50.828;3.228;2023-05-07T00:45:21;8.02;;;4.75;;
49578;SDS011;35483;50.828;3.228;2023-05-07T00:47:53;7.63;;;4.35;;
49578;SDS011;35483;50.828;3.228;2023-05-07T00:50:20;5.35;;;3.75;;
49578;SDS011;35483;50.828;3.228;2023-05-07T00:52:46;7.38;;;4.13;;
49578;SDS011;35483;50.828;3.228;2023-05-07T00:55:12;5.53;;;4.13;;
49578;SDS011;35483;50.828;3.228;2023-05-07T00:57:40;6.13;;;4.38;;
49578;SDS011;35483;50.828;3.228;2023-05-07T01:00:07;6.18;;;4.50;;
49578;SDS011;35483;50.828;3.228;2023-05-07T01:02:40;6.28;;;4.03;;
49578;SDS011;35483;50.828;3.228;2023-05-07T01:05:07;4.88;;;4.00;;
49578;SDS011;35483;50.828;3.228;2023-05-07T01:07:36;8.38;;;5.20;;
49578;SDS011;35483;50.828;3.228;2023-05-07T01:10:07;6.18;;;4.10;;
49578;SDS011;35483;50.828;3.228;2023-05-07T01:12:35;4.35;;;3.78;;
49578;SDS011;35483;50.828;3.228;2023-05-07T01:15:02;9.50;;;5.18;;
49578;SDS011;35483;50.828;3.228;2023-05-07T01:17:33;6.57;;;4.32;;
49578;SDS011;35483;50.828;3.228;2023-05-07T01:20:00;5.60;;;4.00;;
49578;SDS011;35483;50.828;3.228;2023-05-07T01:22:28;7.13;;;4.63;;
49578;SDS011;35483;50.828;3.228;2023-05-07T01:24:59;6.78;;;3.70;;
49578;SDS011;35483;50.828;3.228;2023-05-07T01:27:26;7.65;;;4.60;;
49578;SDS011;35483;50.828;3.228;2023-05-07T01:29:52;8.40;;;4.50;;
49578;SDS011;35483;50.828;3.228;2023-05-07T01:32:18;5.93;;;4.43;;
49578;SDS011;35483;50.828;3.228;2023-05-07T01:34:53;6.95;;;4.22;;
49578;SDS011;35483;50.828;3.228;2023-05-07T01:37:20;5.70;;;4.93;;
49578;SDS011;35483;50.828;3.228;2023-05-07T01:39:47;5.50;;;4.35;;
49578;SDS011;35483;50.828;3.228;2023-05-07T01:42:13;6.72;;;4.72;;
49578;SDS011;35483;50.828;3.228;2023-05-07T01:44:39;7.80;;;5.15;;
49578;SDS011;35483;50.828;3.228;2023-05-07T01:47:05;8.05;;;4.53;;
49578;SDS011;35483;50.828;3.228;2023-05-07T01:49:31;6.03;;;4.43;;
49578;SDS011;35483;50.828;3.228;2023-05-07T01:51:58;7.22;;;4.80;;
49578;SDS011;35483;50.828;3.228;2023-05-07T01:54:27;7.85;;;5.25;;
49578;SDS011;35483;50.828;3.228;2023-05-07T01:56:53;8.45;;;5.43;;
49578;SDS011;35483;50.828;3.228;2023-05-07T01:59:21;9.43;;;6.03;;
49578;SDS011;35483;50.828;3.228;2023-05-07T02:01:47;8.73;;;4.93;;
49578;SDS011;35483;50.828;3.228;2023-05-07T02:04:12;8.38;;;5.43;;
49578;SDS011;35483;50.828;3.228;2023-05-07T02:06:38;7.22;;;4.80;;
49578;SDS011;35483;50.828;3.228;2023-05-07T02:09:04;6.32;;;5.22;;
49578;SDS011;35483;50.828;3.228;2023-05-07T02:11:30;9.45;;;5.28;;
49578;SDS011;35483;50.828;3.228;2023-05-07T02:13:56;6.72;;;5.47;;
49578;SDS011;35483;50.828;3.228;2023-05-07T02:16:22;7.95;;;5.05;;
49578;SDS011;35483;50.828;3.228;2023-05-07T02:18:48;9.00;;;5.70;;
49578;SDS011;35483;50.828;3.228;2023-05-07T02:21:14;7.88;;;5.65;;
49578;SDS011;35483;50.828;3.228;2023-05-07T02:23:40;9.07;;;5.82;;
49578;SDS011;35483;50.828;3.228;2023-05-07T02:26:06;7.32;;;5.32;;
49578;SDS011;35483;50.828;3.228;2023-05-07T02:28:32;8.77;;;5.95;;
49578;SDS011;35483;50.828;3.228;2023-05-07T02:31:01;6.60;;;5.03;;
49578;SDS011;35483;50.828;3.228;2023-05-07T02:33:28;9.23;;;5.47;;
49578;SDS011;35483;50.828;3.228;2023-05-07T02:35:53;8.32;;;5.40;;
49578;SDS011;35483;50.828;3.228;2023-05-07T02:38:19;7.40;;;5.63;;
49578;SDS011;35483;50.828;3.228;2023-05-07T02:40:45;8.30;;;5.25;;
49578;SDS011;35483;50.828;3.228;2023-05-07T02:43:11;7.88;;;5.00;;
49578;SDS011;35483;50.828;3.228;2023-05-07T02:45:36;7.50;;;5.05;;
49578;SDS011;35483;50.828;3.228;2023-05-07T02:48:03;8.20;;;5.50;;
49578;SDS011;35483;50.828;3.228;2023-05-07T02:50:30;8.23;;;4.53;;
49578;SDS011;35483;50.828;3.228;2023-05-07T02:52:57;6.57;;;5.43;;
49578;SDS011;35483;50.828;3.228;2023-05-07T02:55:23;7.00;;;4.68;;
49578;SDS011;35483;50.828;3.228;2023-05-07T02:57:49;7.07;;;5.25;;
49578;SDS011;35483;50.828;3.228;2023-05-07T03:00:18;6.38;;;5.03;;
49578;SDS011;35483;50.828;3.228;2023-05-07T03:02:44;7.63;;;5.32;;
49578;SDS011;35483;50.828;3.228;2023-05-07T03:05:10;8.55;;;5.35;;
49578;SDS011;35483;50.828;3.228;2023-05-07T03:07:38;8.57;;;5.40;;
49578;SDS011;35483;50.828;3.228;2023-05-07T03:10:04;8.00;;;5.05;;
49578;SDS011;35483;50.828;3.228;2023-05-07T03:12:30;8.50;;;4.80;;
49578;SDS011;35483;50.828;3.228;2023-05-07T03:14:56;9.43;;;5.13;;
49578;SDS011;35483;50.828;3.228;2023-05-07T03:17:22;7.93;;;4.65;;
49578;SDS011;35483;50.828;3.228;2023-05-07T03:19:47;7.20;;;5.10;;
49578;SDS011;35483;50.828;3.228;2023-05-07T03:22:13;7.30;;;5.20;;
49578;SDS011;35483;50.828;3.228;2023-05-07T03:24:39;7.00;;;4.65;;
49578;SDS011;35483;50.828;3.228;2023-05-07T03:27:05;5.80;;;5.03;;
49578;SDS011;35483;50.828;3.228;2023-05-07T03:29:31;5.90;;;4.50;;
49578;SDS011;35483;50.828;3.228;2023-05-07T03:31:57;6.55;;;5.15;;
49578;SDS011;35483;50.828;3.228;2023-05-07T03:34:22;5.22;;;4.70;;
49578;SDS011;35483;50.828;3.228;2023-05-07T03:36:49;7.55;;;4.88;;
49578;SDS011;35483;50.828;3.228;2023-05-07T03:39:15;7.45;;;5.25;;
49578;SDS011;35483;50.828;3.228;2023-05-07T03:41:41;7.32;;;4.63;;
49578;SDS011;35483;50.828;3.228;2023-05-07T03:44:07;7.97;;;5.07;;
49578;SDS011;35483;50.828;3.228;2023-05-07T03:46:33;5.40;;;4.60;;
49578;SDS011;35483;50.828;3.228;2023-05-07T03:48:59;8.18;;;4.80;;
49578;SDS011;35483;50.828;3.228;2023-05-07T03:51:25;9.18;;;5.10;;
49578;SDS011;35483;50.828;3.228;2023-05-07T03:53:51;7.93;;;5.50;;
49578;SDS011;35483;50.828;3.228;2023-05-07T03:56:22;8.85;;;5.50;;
49578;SDS011;35483;50.828;3.228;2023-05-07T03:58:56;6.88;;;5.57;;
49578;SDS011;35483;50.828;3.228;2023-05-07T04:01:22;9.30;;;6.28;;
49578;SDS011;35483;50.828;3.228;2023-05-07T04:03:48;11.15;;;6.03;;
49578;SDS011;35483;50.828;3.228;2023-05-07T04:06:17;5.82;;;5.22;;
49578;SDS011;35483;50.828;3.228;2023-05-07T04:08:44;7.93;;;5.32;;
49578;SDS011;35483;50.828;3.228;2023-05-07T04:11:11;9.55;;;6.05;;
49578;SDS011;35483;50.828;3.228;2023-05-07T04:13:37;7.32;;;6.00;;
49578;SDS011;35483;50.828;3.228;2023-05-07T04:16:03;10.30;;;6.53;;
49578;SDS011;35483;50.828;3.228;2023-05-07T04:18:30;11.13;;;5.85;;
49578;SDS011;35483;50.828;3.228;2023-05-07T04:20:56;11.13;;;6.47;;
49578;SDS011;35483;50.828;3.228;2023-05-07T04:23:22;8.93;;;6.25;;
49578;SDS011;35483;50.828;3.228;2023-05-07T04:25:48;9.20;;;6.88;;
49578;SDS011;35483;50.828;3.228;2023-05-07T04:28:14;9.90;;;6.65;;
49578;SDS011;35483;50.828;3.228;2023-05-07T04:30:41;11.77;;;7.13;;
49578;SDS011;35483;50.828;3.228;2023-05-07T04:33:07;8.85;;;6.50;;
49578;SDS011;35483;50.828;3.228;2023-05-07T04:35:33;9.18;;;6.45;;
49578;SDS011;35483;50.828;3.228;2023-05-07T04:38:00;8.18;;;6.70;;
49578;SDS011;35483;50.828;3.228;2023-05-07T04:40:26;11.15;;;6.97;;
49578;SDS011;35483;50.828;3.228;2023-05-07T04:42:52;8.93;;;7.70;;
49578;SDS011;35483;50.828;3.228;2023-05-07T04:45:18;10.38;;;7.00;;
49578;SDS011;35483;50.828;3.228;2023-05-07T04:47:45;10.05;;;6.63;;
49578;SDS011;35483;50.828;3.228;2023-05-07T04:50:11;9.27;;;6.57;;
49578;SDS011;35483;50.828;3.228;2023-05-07T04:52:37;8.70;;;6.35;;
49578;SDS011;35483;50.828;3.228;2023-05-07T04:55:03;9.18;;;6.63;;
49578;SDS011;35483;50.828;3.228;2023-05-07T04:57:29;8.48;;;6.90;;
49578;SDS011;35483;50.828;3.228;2023-05-07T04:59:55;9.38;;;6.90;;
49578;SDS011;35483;50.828;3.228;2023-05-07T05:02:22;9.93;;;6.65;;
49578;SDS011;35483;50.828;3.228;2023-05-07T05:04:48;12.00;;;7.22;;
49578;SDS011;35483;50.828;3.228;2023-05-07T05:07:14;9.48;;;6.57;;
49578;SDS011;35483;50.828;3.228;2023-05-07T05:09:40;8.00;;;5.93;;
49578;SDS011;35483;50.828;3.228;2023-05-07T05:12:06;9.73;;;6.88;;
49578;SDS011;35483;50.828;3.228;2023-05-07T05:14:32;8.90;;;6.45;;
49578;SDS011;35483;50.828;3.228;2023-05-07T05:16:58;8.38;;;6.30;;
49578;SDS011;35483;50.828;3.228;2023-05-07T05:19:24;8.57;;;6.28;;
49578;SDS011;35483;50.828;3.228;2023-05-07T05:21:49;9.98;;;6.25;;
49578;SDS011;35483;50.828;3.228;2023-05-07T05:24:15;7.55;;;6.50;;
49578;SDS011;35483;50.828;3.228;2023-05-07T05:26:41;11.05;;;6.25;;
49578;SDS011;35483;50.828;3.228;2023-05-07T05:29:07;9.20;;;6.22;;
49578;SDS011;35483;50.828;3.228;2023-05-07T05:31:33;9.30;;;6.28;;
49578;SDS011;35483;50.828;3.228;2023-05-07T05:33:59;9.35;;;6.20;;
49578;SDS011;35483;50.828;3.228;2023-05-07T05:36:25;7.38;;;6.18;;
49578;SDS011;35483;50.828;3.228;2023-05-07T05:38:51;8.98;;;6.90;;
49578;SDS011;35483;50.828;3.228;2023-05-07T05:41:17;9.27;;;7.25;;
49578;SDS011;35483;50.828;3.228;2023-05-07T05:43:43;10.00;;;7.07;;
49578;SDS011;35483;50.828;3.228;2023-05-07T05:46:09;8.32;;;6.88;;
49578;SDS011;35483;50.828;3.228;2023-05-07T05:48:36;9.45;;;7.05;;
49578;SDS011;35483;50.828;3.228;2023-05-07T05:51:02;8.32;;;6.43;;
49578;SDS011;35483;50.828;3.228;2023-05-07T05:53:28;10.20;;;7.00;;
49578;SDS011;35483;50.828;3.228;2023-05-07T05:55:54;10.15;;;7.03;;
49578;SDS011;35483;50.828;3.228;2023-05-07T05:58:20;8.43;;;6.93;;
49578;SDS011;35483;50.828;3.228;2023-05-07T06:00:46;10.15;;;7.13;;
49578;SDS011;35483;50.828;3.228;2023-05-07T06:03:13;11.00;;;7.72;;
49578;SDS011;35483;50.828;3.228;2023-05-07T06:05:39;11.52;;;7.32;;
49578;SDS011;35483;50.828;3.228;2023-05-07T06:08:05;9.50;;;7.65;;
49578;SDS011;35483;50.828;3.228;2023-05-07T06:10:31;9.43;;;7.30;;
49578;SDS011;35483;50.828;3.228;2023-05-07T06:12:57;10.35;;;7.13;;
49578;SDS011;35483;50.828;3.228;2023-05-07T06:15:23;10.70;;;7.25;;
49578;SDS011;35483;50.828;3.228;2023-05-07T06:17:49;10.80;;;7.30;;
49578;SDS011;35483;50.828;3.228;2023-05-07T06:20:17;9.30;;;6.95;;
49578;SDS011;35483;50.828;3.228;2023-05-07T06:22:43;10.82;;;7.07;;
49578;SDS011;35483;50.828;3.228;2023-05-07T06:25:09;8.75;;;7.18;;
49578;SDS011;35483;50.828;3.228;2023-05-07T06:27:35;7.97;;;6.45;;
49578;SDS011;35483;50.828;3.228;2023-05-07T06:30:01;8.50;;;6.15;;
49578;SDS011;35483;50.828;3.228;2023-05-07T06:32:27;9.48;;;6.22;;
49578;SDS011;35483;50.828;3.228;2023-05-07T06:34:53;9.93;;;6.60;;
49578;SDS011;35483;50.828;3.228;2023-05-07T06:37:19;8.52;;;6.60;;
49578;SDS011;35483;50.828;3.228;2023-05-07T06:39:45;8.13;;;6.65;;
49578;SDS011;35483;50.828;3.228;2023-05-07T06:42:11;6.97;;;6.28;;
49578;SDS011;35483;50.828;3.228;2023-05-07T06:44:37;7.30;;;6.00;;
49578;SDS011;35483;50.828;3.228;2023-05-07T06:47:04;10.48;;;6.40;;
49578;SDS011;35483;50.828;3.228;2023-05-07T06:49:30;8.23;;;6.50;;
49578;SDS011;35483;50.828;3.228;2023-05-07T06:51:56;8.23;;;7.30;;
49578;SDS011;35483;50.828;3.228;2023-05-07T06:54:22;9.30;;;6.80;;
49578;SDS011;35483;50.828;3.228;2023-05-07T06:56:48;6.95;;;6.25;;
49578;SDS011;35483;50.828;3.228;2023-05-07T06:59:15;10.18;;;6.57;;
49578;SDS011;35483;50.828;3.228;2023-05-07T07:01:41;9.52;;;7.13;;
49578;SDS011;35483;50.828;3.228;2023-05-07T07:04:07;11.02;;;7.32;;
49578;SDS011;35483;50.828;3.228;2023-05-07T07:06:33;11.55;;;6.93;;
49578;SDS011;35483;50.828;3.228;2023-05-07T07:08:59;8.70;;;6.32;;
49578;SDS011;35483;50.828;3.228;2023-05-07T07:11:25;9.68;;;6.63;;
49578;SDS011;35483;50.828;3.228;2023-05-07T07:13:51;8.63;;;6.20;;
49578;SDS011;35483;50.828;3.228;2023-05-07T07:16:20;6.45;;;5.38;;
49578;SDS011;35483;50.828;3.228;2023-05-07T07:18:46;6.60;;;5.85;;
49578;SDS011;35483;50.828;3.228;2023-05-07T07:21:12;8.18;;;5.85;;
49578;SDS011;35483;50.828;3.228;2023-05-07T07:23:38;9.15;;;6.20;;
49578;SDS011;35483;50.828;3.228;2023-05-07T07:26:04;6.80;;;5.85;;
49578;SDS011;35483;50.828;3.228;2023-05-07T07:28:31;9.57;;;6.20;;
49578;SDS011;35483;50.828;3.228;2023-05-07T07:30:57;10.80;;;6.70;;
49578;SDS011;35483;50.828;3.228;2023-05-07T07:33:23;9.50;;;7.18;;
49578;SDS011;35483;50.828;3.228;2023-05-07T07:35:49;9.43;;;7.03;;
49578;SDS011;35483;50.828;3.228;2023-05-07T07:38:15;7.88;;;6.20;;
49578;SDS011;35483;50.828;3.228;2023-05-07T07:40:41;7.88;;;6.10;;
49578;SDS011;35483;50.828;3.228;2023-05-07T07:43:08;8.30;;;6.40;;
49578;SDS011;35483;50.828;3.228;2023-05-07T07:45:35;8.13;;;5.95;;
49578;SDS011;35483;50.828;3.228;2023-05-07T07:48:01;7.65;;;6.03;;
49578;SDS011;35483;50.828;3.228;2023-05-07T07:50:27;7.05;;;6.30;;
49578;SDS011;35483;50.828;3.228;2023-05-07T07:52:53;8.00;;;5.93;;
49578;SDS011;35483;50.828;3.228;2023-05-07T07:55:19;8.13;;;6.03;;
49578;SDS011;35483;50.828;3.228;2023-05-07T07:57:49;6.40;;;5.80;;
49578;SDS011;35483;50.828;3.228;2023-05-07T08:00:15;7.63;;;5.85;;
49578;SDS011;35483;50.828;3.228;2023-05-07T08:02:41;7.50;;;5.70;;
49578;SDS011;35483;50.828;3.228;2023-05-07T08:05:08;6.45;;;5.40;;
49578;SDS011;35483;50.828;3.228;2023-05-07T08:07:34;6.30;;;4.95;;
49578;SDS011;35483;50.828;3.228;2023-05-07T08:10:00;6.32;;;5.10;;
49578;SDS011;35483;50.828;3.228;2023-05-07T08:12:25;5.78;;;4.43;;
49578;SDS011;35483;50.828;3.228;2023-05-07T08:14:51;5.68;;;5.03;;
49578;SDS011;35483;50.828;3.228;2023-05-07T08:17:17;8.90;;;5.32;;
49578;SDS011;35483;50.828;3.228;2023-05-07T08:19:44;5.70;;;5.00;;
49578;SDS011;35483;50.828;3.228;2023-05-07T08:22:10;6.78;;;5.30;;
49578;SDS011;35483;50.828;3.228;2023-05-07T08:24:37;6.47;;;5.47;;
49578;SDS011;35483;50.828;3.228;2023-05-07T08:27:03;6.00;;;5.38;;
49578;SDS011;35483;50.828;3.228;2023-05-07T08:29:29;7.95;;;5.80;;
49578;SDS011;35483;50.828;3.228;2023-05-07T08:31:55;7.85;;;5.93;;
49578;SDS011;35483;50.828;3.228;2023-05-07T08:34:21;8.55;;;6.10;;
49578;SDS011;35483;50.828;3.228;2023-05-07T08:36:48;8.73;;;6.20;;
49578;SDS011;35483;50.828;3.228;2023-05-07T08:39:17;9.40;;;6.85;;
49578;SDS011;35483;50.828;3.228;2023-05-07T08:41:46;9.45;;;7.13;;
49578;SDS011;35483;50.828;3.228;2023-05-07T08:44:16;6.82;;;6.13;;
49578;SDS011;35483;50.828;3.228;2023-05-07T08:46:44;7.85;;;6.95;;
49578;SDS011;35483;50.828;3.228;2023-05-07T08:49:13;7.63;;;6.32;;
49578;SDS011;35483;50.828;3.228;2023-05-07T08:51:41;8.85;;;6.45;;
49578;SDS011;35483;50.828;3.228;2023-05-07T08:54:07;6.57;;;5.30;;
49578;SDS011;35483;50.828;3.228;2023-05-07T08:56:34;6.40;;;4.80;;
49578;SDS011;35483;50.828;3.228;2023-05-07T08:59:00;5.32;;;4.50;;
49578;SDS011;35483;50.828;3.228;2023-05-07T09:01:26;4.93;;;4.07;;
49578;SDS011;35483;50.828;3.228;2023-05-07T09:03:52;5.65;;;4.68;;
49578;SDS011;35483;50.828;3.228;2023-05-07T09:06:19;5.47;;;4.60;;
49578;SDS011;35483;50.828;3.228;2023-05-07T09:08:51;8.20;;;5.13;;
49578;SDS011;35483;50.828;3.228;2023-05-07T09:11:22;5.07;;;4.30;;
49578;SDS011;35483;50.828;3.228;2023-05-07T09:13:49;4.85;;;4.45;;
49578;SDS011;35483;50.828;3.228;2023-05-07T09:16:20;5.05;;;4.35;;
49578;SDS011;35483;50.828;3.228;2023-05-07T09:18:48;4.78;;;4.05;;
49578;SDS011;35483;50.828;3.228;2023-05-07T09:21:17;5.90;;;4.50;;
49578;SDS011;35483;50.828;3.228;2023-05-07T09:23:44;4.97;;;3.97;;
49578;SDS011;35483;50.828;3.228;2023-05-07T09:26:10;5.00;;;3.85;;
49578;SDS011;35483;50.828;3.228;2023-05-07T09:28:39;4.40;;;4.00;;
49578;SDS011;35483;50.828;3.228;2023-05-07T09:31:09;6.30;;;3.88;;
49578;SDS011;35483;50.828;3.228;2023-05-07T09:33:35;4.20;;;3.58;;
49578;SDS011;35483;50.828;3.228;2023-05-07T09:36:02;5.10;;;4.00;;
49578;SDS011;35483;50.828;3.228;2023-05-07T09:38:32;4.18;;;3.30;;
49578;SDS011;35483;50.828;3.228;2023-05-07T09:41:02;4.18;;;3.75;;
49578;SDS011;35483;50.828;3.228;2023-05-07T09:43:37;3.60;;;3.30;;
49578;SDS011;35483;50.828;3.228;2023-05-07T09:46:11;4.07;;;3.25;;
49578;SDS011;35483;50.828;3.228;2023-05-07T09:48:39;3.53;;;3.22;;
49578;SDS011;35483;50.828;3.228;2023-05-07T09:51:11;4.10;;;3.70;;
49578;SDS011;35483;50.828;3.228;2023-05-07T09:53:47;4.72;;;4.18;;
49578;SDS011;35483;50.828;3.228;2023-05-07T09:56:15;3.65;;;3.35;;
49578;SDS011;35483;50.828;3.228;2023-05-07T09:58:43;3.67;;;3.13;;
49578;SDS011;35483;50.828;3.228;2023-05-07T10:01:10;4.03;;;3.60;;
49578;SDS011;35483;50.828;3.228;2023-05-07T10:03:41;4.25;;;3.40;;
49578;SDS011;35483;50.828;3.228;2023-05-07T10:06:09;5.45;;;3.72;;
49578;SDS011;35483;50.828;3.228;2023-05-07T10:08:36;4.32;;;3.60;;
49578;SDS011;35483;50.828;3.228;2023-05-07T10:11:03;4.05;;;3.50;;
49578;SDS011;35483;50.828;3.228;2023-05-07T10:13:31;3.72;;;3.35;;
49578;SDS011;35483;50.828;3.228;2023-05-07T10:16:01;4.70;;;4.03;;
49578;SDS011;35483;50.828;3.228;2023-05-07T10:18:29;4.95;;;4.15;;
49578;SDS011;35483;50.828;3.228;2023-05-07T10:21:04;5.80;;;4.40;;
49578;SDS011;35483;50.828;3.228;2023-05-07T10:23:50;5.47;;;4.35;;
49578;SDS011;35483;50.828;3.228;2023-05-07T10:26:22;5.55;;;4.45;;
49578;SDS011;35483;50.828;3.228;2023-05-07T10:28:50;5.70;;;4.70;;
49578;SDS011;35483;50.828;3.228;2023-05-07T10:34:16;5.22;;;4.70;;
49578;SDS011;35483;50.828;3.228;2023-05-07T10:36:48;4.70;;;4.30;;
49578;SDS011;35483;50.828;3.228;2023-05-07T10:39:15;6.07;;;4.70;;
49578;SDS011;35483;50.828;3.228;2023-05-07T10:41:41;4.88;;;4.03;;
49578;SDS011;35483;50.828;3.228;2023-05-07T10:44:07;5.00;;;4.50;;
49578;SDS011;35483;50.828;3.228;2023-05-07T10:46:33;5.07;;;4.40;;
49578;SDS011;35483;50.828;3.228;2023-05-07T10:51:28;5.40;;;4.28;;
49578;SDS011;35483;50.828;3.228;2023-05-07T10:56:37;5.82;;;4.90;;
49578;SDS011;35483;50.828;3.228;2023-05-07T11:01:56;4.88;;;4.28;;
49578;SDS011;35483;50.828;3.228;2023-05-07T11:04:23;5.00;;;4.28;;
49578;SDS011;35483;50.828;3.228;2023-05-07T11:17:28;3.83;;;3.40;;
49578;SDS011;35483;50.828;3.228;2023-05-07T11:19:57;4.85;;;3.35;;
49578;SDS011;35483;50.828;3.228;2023-05-07T11:25:04;5.25;;;3.30;;
49578;SDS011;35483;50.828;3.228;2023-05-07T11:27:32;5.88;;;3.53;;
49578;SDS011;35483;50.828;3.228;2023-05-07T11:29:58;5.38;;;3.90;;
49578;SDS011;35483;50.828;3.228;2023-05-07T11:32:29;4.38;;;3.97;;
49578;SDS011;35483;50.828;3.228;2023-05-07T11:34:57;4.60;;;3.63;;
49578;SDS011;35483;50.828;3.228;2023-05-07T11:37:25;4.28;;;3.70;;
49578;SDS011;35483;50.828;3.228;2023-05-07T11:40:05;4.28;;;3.50;;
49578;SDS011;35483;50.828;3.228;2023-05-07T11:42:36;4.65;;;3.88;;
49578;SDS011;35483;50.828;3.228;2023-05-07T11:45:04;4.10;;;3.72;;
49578;SDS011;35483;50.828;3.228;2023-05-07T11:47:31;6.13;;;4.03;;
49578;SDS011;35483;50.828;3.228;2023-05-07T11:50:02;5.57;;;3.92;;
49578;SDS011;35483;50.828;3.228;2023-05-07T11:52:32;5.63;;;4.03;;
49578;SDS011;35483;50.828;3.228;2023-05-07T11:54:59;5.18;;;3.50;;
49578;SDS011;35483;50.828;3.228;2023-05-07T11:57:26;4.85;;;4.05;;
49578;SDS011;35483;50.828;3.228;2023-05-07T11:59:53;4.90;;;4.10;;
49578;SDS011;35483;50.828;3.228;2023-05-07T12:02:20;5.82;;;4.20;;
49578;SDS011;35483;50.828;3.228;2023-05-07T12:04:46;4.07;;;3.67;;
49578;SDS011;35483;50.828;3.228;2023-05-07T12:07:12;5.32;;;4.82;;
49578;SDS011;35483;50.828;3.228;2023-05-07T12:09:40;6.93;;;5.00;;
49578;SDS011;35483;50.828;3.228;2023-05-07T12:12:07;6.75;;;4.72;;
49578;SDS011;35483;50.828;3.228;2023-05-07T12:14:37;5.03;;;4.07;;
49578;SDS011;35483;50.828;3.228;2023-05-07T12:17:04;4.63;;;4.22;;
49578;SDS011;35483;50.828;3.228;2023-05-07T12:19:31;7.15;;;4.85;;
49578;SDS011;35483;50.828;3.228;2023-05-07T12:21:58;5.97;;;5.40;;
49578;SDS011;35483;50.828;3.228;2023-05-07T12:24:25;8.30;;;5.88;;
49578;SDS011;35483;50.828;3.228;2023-05-07T12:26:51;7.32;;;5.00;;
49578;SDS011;35483;50.828;3.228;2023-05-07T12:29:17;7.57;;;6.30;;
49578;SDS011;35483;50.828;3.228;2023-05-07T12:31:47;7.78;;;6.38;;
49578;SDS011;35483;50.828;3.228;2023-05-07T12:34:15;6.70;;;6.10;;
49578;SDS011;35483;50.828;3.228;2023-05-07T12:36:41;7.25;;;6.07;;
49578;SDS011;35483;50.828;3.228;2023-05-07T12:39:08;8.35;;;5.97;;
49578;SDS011;35483;50.828;3.228;2023-05-07T12:44:23;6.90;;;5.53;;
49578;SDS011;35483;50.828;3.228;2023-05-07T12:46:49;6.15;;;5.40;;
49578;SDS011;35483;50.828;3.228;2023-05-07T12:49:16;6.78;;;5.63;;
49578;SDS011;35483;50.828;3.228;2023-05-07T12:51:48;6.18;;;5.05;;
49578;SDS011;35483;50.828;3.228;2023-05-07T12:54:37;6.00;;;5.35;;
49578;SDS011;35483;50.828;3.228;2023-05-07T12:57:06;5.97;;;5.38;;
49578;SDS011;35483;50.828;3.228;2023-05-07T12:59:36;6.82;;;5.13;;
49578;SDS011;35483;50.828;3.228;2023-05-07T13:02:05;6.57;;;5.88;;
49578;SDS011;35483;50.828;3.228;2023-05-07T13:04:31;6.10;;;5.45;;
49578;SDS011;35483;50.828;3.228;2023-05-07T13:06:58;8.25;;;6.30;;
49578;SDS011;35483;50.828;3.228;2023-05-07T13:09:24;6.45;;;5.65;;
49578;SDS011;35483;50.828;3.228;2023-05-07T13:11:50;8.48;;;5.78;;
49578;SDS011;35483;50.828;3.228;2023-05-07T13:14:16;6.20;;;5.38;;
49578;SDS011;35483;50.828;3.228;2023-05-07T13:16:43;5.97;;;5.38;;
49578;SDS011;35483;50.828;3.228;2023-05-07T13:19:09;6.25;;;5.60;;
49578;SDS011;35483;50.828;3.228;2023-05-07T13:21:35;6.05;;;5.45;;
49578;SDS011;35483;50.828;3.228;2023-05-07T13:24:01;7.20;;;5.30;;
49578;SDS011;35483;50.828;3.228;2023-05-07T13:26:27;7.00;;;5.80;;
49578;SDS011;35483;50.828;3.228;2023-05-07T13:28:55;5.95;;;5.38;;
49578;SDS011;35483;50.828;3.228;2023-05-07T13:31:21;6.85;;;6.10;;
49578;SDS011;35483;50.828;3.228;2023-05-07T13:33:47;7.93;;;6.13;;
49578;SDS011;35483;50.828;3.228;2023-05-07T13:36:13;6.63;;;5.63;;
49578;SDS011;35483;50.828;3.228;2023-05-07T13:38:40;6.97;;;5.20;;
49578;SDS011;35483;50.828;3.228;2023-05-07T13:41:06;7.47;;;6.13;;
49578;SDS011;35483;50.828;3.228;2023-05-07T13:43:32;8.68;;;5.93;;
49578;SDS011;35483;50.828;3.228;2023-05-07T13:45:59;6.47;;;5.88;;
49578;SDS011;35483;50.828;3.228;2023-05-07T13:48:25;6.55;;;5.85;;
49578;SDS011;35483;50.828;3.228;2023-05-07T13:50:51;7.20;;;6.45;;
49578;SDS011;35483;50.828;3.228;2023-05-07T13:53:17;6.80;;;5.53;;
49578;SDS011;35483;50.828;3.228;2023-05-07T13:55:44;7.93;;;6.28;;
49578;SDS011;35483;50.828;3.228;2023-05-07T13:58:10;6.72;;;6.13;;
49578;SDS011;35483;50.828;3.228;2023-05-07T14:00:36;6.30;;;5.72;;
49578;SDS011;35483;50.828;3.228;2023-05-07T14:03:03;6.65;;;6.05;;
49578;SDS011;35483;50.828;3.228;2023-05-07T14:05:30;7.28;;;5.50;;
49578;SDS011;35483;50.828;3.228;2023-05-07T14:07:59;7.00;;;6.15;;
49578;SDS011;35483;50.828;3.228;2023-05-07T14:10:25;7.50;;;6.50;;
49578;SDS011;35483;50.828;3.228;2023-05-07T14:12:51;8.55;;;6.05;;
49578;SDS011;35483;50.828;3.228;2023-05-07T14:15:18;7.40;;;6.65;;
49578;SDS011;35483;50.828;3.228;2023-05-07T14:17:44;7.13;;;6.43;;
49578;SDS011;35483;50.828;3.228;2023-05-07T14:20:10;7.45;;;6.43;;
49578;SDS011;35483;50.828;3.228;2023-05-07T14:22:37;7.05;;;6.07;;
49578;SDS011;35483;50.828;3.228;2023-05-07T14:25:03;7.00;;;6.30;;
49578;SDS011;35483;50.828;3.228;2023-05-07T14:27:29;9.02;;;6.25;;
49578;SDS011;35483;50.828;3.228;2023-05-07T14:29:55;8.32;;;6.35;;
49578;SDS011;35483;50.828;3.228;2023-05-07T14:32:22;8.00;;;6.57;;
49578;SDS011;35483;50.828;3.228;2023-05-07T14:34:49;7.95;;;6.82;;
49578;SDS011;35483;50.828;3.228;2023-05-07T14:37:15;9.93;;;7.53;;
49578;SDS011;35483;50.828;3.228;2023-05-07T14:39:43;10.23;;;7.45;;
49578;SDS011;35483;50.828;3.228;2023-05-07T14:42:09;9.38;;;7.28;;
49578;SDS011;35483;50.828;3.228;2023-05-07T14:44:35;11.38;;;7.53;;
49578;SDS011;35483;50.828;3.228;2023-05-07T14:47:01;8.57;;;7.07;;
49578;SDS011;35483;50.828;3.228;2023-05-07T14:49:27;9.27;;;7.28;;
49578;SDS011;35483;50.828;3.228;2023-05-07T14:51:53;8.50;;;7.70;;
49578;SDS011;35483;50.828;3.228;2023-05-07T14:54:22;8.40;;;6.90;;
49578;SDS011;35483;50.828;3.228;2023-05-07T14:56:48;8.98;;;6.95;;
49578;SDS011;35483;50.828;3.228;2023-05-07T14:59:14;7.82;;;6.90;;
49578;SDS011;35483;50.828;3.228;2023-05-07T15:01:42;8.32;;;7.00;;
49578;SDS011;35483;50.828;3.228;2023-05-07T15:04:10;7.80;;;6.60;;
49578;SDS011;35483;50.828;3.228;2023-05-07T15:06:36;7.40;;;6.70;;
49578;SDS011;35483;50.828;3.228;2023-05-07T15:09:02;8.38;;;7.57;;
49578;SDS011;35483;50.828;3.228;2023-05-07T15:11:28;7.78;;;6.78;;